Detall de PIREP

Printer-friendly versionPDF version

[2015/12/04 11:15:00]
Flight IATA:CT3108
Pilot Number:012
Company ICAO:CAT
Aircraft Type:B763/F
PAX:263
Departing Airport: LIEA
Destination Airport: LEZG
Alternate Airport:LEBL
Online: VATSIM
Route:GINOX UM601 BCN UN725 LOBAR
Flight Level:F350
No Slew and time accel
No pause
Crash detect
Detect pilot in Cockpit between each 30 and 45 minutes
11:15 Zero fuel Weight: 255312 Lbs, Fuel Weight: 29594 Lbs
11:15 VATSIM:LIEA 041050Z VRB01KT 9999 BKN040 14/11 Q1034
11:15 VATSIM:LEZG 041100Z 31008KT 9000 NSC 11/05 Q1035
11:16 Parking Brakes off
11:20 Take-off
11:20 Take off Weight: 283724 Lbs
11:20 Wind: 358º @ 001 Knots Heading: 204º
11:20 POS N40º 37´ 57´´ E008º 17´ 28´´
11:20 Gear Up: 167 Knots
11:20 Flaps:2 at 167 Knots
11:21 Flaps:1 at 207 Knots
11:24 Flaps:0 at 210 Knots
11:32 TOC
11:32 Fuel Weight: 22644 Lb
11:35 Wind:343º@037 Knots Heading: 276º Ground Speed: 452 Knots Altitude 35603 ft
11:50 Wind:312º@030 Knots Heading: 280º Ground Speed: 441 Knots Altitude 35620 ft
12:05 Wind:280º@023 Knots Heading: 276º Ground Speed: 437 Knots Altitude 35616 ft
12:12 TOD
12:12 Fuel Weight: 16425 Lb
12:20 Wind:267º@027 Knots Heading: 284º Ground Speed: 344 Knots Altitude 14773 ft
12:23 Flaps:1 at 227 Knots
12:24 Flaps:2 at 206 Knots
12:29 Flaps:3 at 205 Knots
12:31 Gear Down: 155 Knots
12:31 Flaps:4 at 144 Knots
12:31 Flaps:5 at 142 Knots
12:32 Flaps:6 at 138 Knots
12:35 Wind:310º@021 Knots Heading: 302º Ground Speed: 114 Knots Altitude 967 ft
12:35 TouchDown:Rate -311 ft/min Speed: 121 Knots
12:35 VATSIM:LEZG 041200Z 31009KT CAVOK 13/06 Q1035
12:35 Land
12:35 Wind:310º@017 Knots
12:35 Heading: 300º
12:35 Flight Duration: 01:15
12:35 Landing Weight: 269198 Lbs
12:35 POS N41º 39´ 40´´ W001º 01´ 17´´
12:37 Parking brakes on
12:37 Block to Block Duration: 01:21
12:37 Final Fuel: 13571 Lbls
12:37 Spent Fuel: 16022 Lbls
12:37 Flight Length: 465 NM
12:37 TOD Land Length: 104 NM

Exportar CSV

Powered by Drupal - Modified by Danger4k